TimePDT,TemperatureF,Dew PointF,Humidity,Sea Level PressureIn,VisibilityMPH,Wind Direction,Wind SpeedMPH,Gust SpeedMPH,PrecipitationIn,Events,Conditions,WindDirDegrees,DateUTC
12:00 AM,37.4,21.2,52,30.06,40.0,East,8.1,-,N/A,,Clear,80,2013-03-26 07:00:00
1:00 AM,35.6,21.2,56,30.06,40.0,ENE,5.8,-,N/A,,Partly Cloudy,70,2013-03-26 08:00:00
3:00 AM,32.0,21.2,64,30.07,40.0,SSW,2.3,-,N/A,,Clear,200,2013-03-26 10:00:00
4:00 AM,32.0,19.4,60,30.07,40.0,East,2.3,-,N/A,,Partly Cloudy,100,2013-03-26 11:00:00
5:00 AM,30,20,56,30.08,37,ENE,5.8,,,,Clear,70,2013-03-26 12:00:00
5:00 AM,30.2,21.2,69,30.08,40.0,ENE,4.6,-,N/A,,Partly Cloudy,60,2013-03-26 12:00:00
6:00 AM,30.2,21.2,69,30.09,40.0,NE,2.3,-,N/A,,Partly Cloudy,50,2013-03-26 13:00:00
7:00 AM,30.2,23.0,75,30.10,40.0,East,2.3,-,N/A,,Partly Cloudy,90,2013-03-26 14:00:00
8:00 AM,30.2,21.2,69,30.11,40.0,ENE,2.3,-,N/A,,Scattered Clouds,60,2013-03-26 15:00:00
9:00 AM,35.6,23.0,60,30.11,40.0,East,6.9,-,N/A,,Scattered Clouds,100,2013-03-26 16:00:00
10:00 AM,39.2,23.0,52,30.10,40.0,East,6.9,-,N/A,,Scattered Clouds,90,2013-03-26 17:00:00
11:00 AM,42,23,33,30.09,37,East,8.1,,,,Clear,90,2013-03-26 18:00:00
11:00 AM,42.8,23.0,46,30.09,40.0,East,8.1,-,N/A,,Scattered Clouds,80,2013-03-26 18:00:00
12:00 PM,46.4,23.0,40,30.07,40.0,East,4.6,-,N/A,,Partly Cloudy,100,2013-03-26 19:00:00
1:00 PM,50.0,23.0,35,30.04,40.0,SSE,4.6,-,N/A,,Scattered Clouds,160,2013-03-26 20:00:00
2:00 PM,53.6,23.0,30,30.01,40.0,SE,5.8,-,N/A,,Scattered Clouds,140,2013-03-26 21:00:00
3:00 PM,57.2,23.0,27,29.98,40.0,SSE,5.8,-,N/A,,Scattered Clouds,150,2013-03-26 22:00:00
4:00 PM,59.0,24.8,27,29.96,40.0,SE,4.6,-,N/A,,Scattered Clouds,140,2013-03-26 23:00:00
5:00 PM,59,24,15,29.94,37,SE,2.3,,,,Overcast,130,2013-03-27 00:00:00
5:00 PM,59.0,24.8,27,29.94,40.0,SE,2.3,-,N/A,,Mostly Cloudy,140,2013-03-27 00:00:00
6:00 PM,57.2,28.4,33,29.94,40.0,West,3.5,-,N/A,,Mostly Cloudy,280,2013-03-27 01:00:00
7:00 PM,50.0,30.2,47,29.94,40.0,West,3.5,-,N/A,,Mostly Cloudy,280,2013-03-27 02:00:00
8:00 PM,51.8,26.6,38,29.95,40.0,North,4.6,-,N/A,,Mostly Cloudy,10,2013-03-27 03:00:00
9:00 PM,44.6,26.6,49,29.97,40.0,West,5.8,-,N/A,,Mostly Cloudy,280,2013-03-27 04:00:00
10:00 PM,44.6,28.4,53,29.98,40.0,SSE,8.1,-,N/A,,Mostly Cloudy,150,2013-03-27 05:00:00
11:00 PM,45,29,41,29.99,37,SW,3.5,,,,Mostly Cloudy,220,2013-03-27 06:00:00
11:00 PM,44.6,28.4,53,29.99,40.0,SW,2.3,-,N/A,,Mostly Cloudy,220,2013-03-27 06:00:00